KGYH

Donaldson Field Airport

Greenville, South Carolina, USA
METAR KGYH 181547Z 27003KT 3SM BR OVC005 11/09 A3018
Observed Flight Rules
Dec-18 @ 15:47 UTC (an hour ago) Instrument Flight Rules
Wind Visibility Clouds Conditions
270° at 3 knots 3 miles
  • Overcast at 500' AGL
  • Mist
Temperatures Readings
Current 11°C / 52°F
Dewpoint 9°C / 48°F
Humidity 88%
Altimeter 30.18" Hg
Pressure 1022 hPa
Elevation 292
METAR KGYH 181547Z 27003KT 3SM BR OVC005 11/09 A3018
Observed Flight Rules
Dec-18 @ 15:47 UTC
(an hour ago)
IFR
Wind Visibility
270° at 3 knots 3 miles
Clouds
  • Overcast at 500' AGL
Conditions
  • Mist
Temperature Dewpoint
11°C / 52°F 9°C / 48°F
Humidity Altimeter Pressure
88% 30.18" Hg 1022 hPa